Santa Eulalia — EA8982 — position and weather

sailwx.info

Track history (hours):
 
Tides and Currents Weather Stations Pressure Air Temp Water Temp Dewpoint Dewpoint Depression Visibility Wind Speed Wind Dir Waves Ship Positions

Santa Eulalia

Last reported at 2017-Nov-02 11:12 UTC. Time now 2017-Dec-13 19:04 UTC.
Position N 38°59' E 001°32'.
Warning: this ship's position is 41 days out of date.

Length 18 m.

Type: Passenger vessel. MMSI: 224005530.

Date/timePositionNaut miles runAvg speedWind from/ knotsBaromVisibWave heightAir tempDewpointWater temp
2017-Nov-02 11:12N 38°59' E 001°32'0 1.0
2017-Nov-02 11:00N 38°59' E 001°32'5 9.2
2017-Nov-02 10:30N 38°55' E 001°29'2 4.6
2017-Nov-02 10:00N 38°55' E 001°26'0 0.0
2017-Nov-02 09:28N 38°55' E 001°26'0 0.0
2017-Nov-02 08:58N 38°55' E 001°26'0 0.0
2017-Nov-02 08:28N 38°55' E 001°26'1 3.2
2017-Nov-02 08:00N 38°54' E 001°28'510.2
2017-Nov-02 07:29N 38°59' E 001°32'  
2017-Oct-30 09:22N 38°59' E 001°32'2 5.1
2017-Oct-30 09:00N 38°58' E 001°34'2 0.0
2017-Oct-28 16:37N 38°59' E 001°32'0 2.4
2017-Oct-28 16:30N 38°59' E 001°32'2 2.4
2017-Oct-28 15:48N 38°59' E 001°34'2 5.3
2017-Oct-28 15:29N 38°59' E 001°32'4 7.0
2017-Oct-28 14:58N 38°56' E 001°30'3 7.0
2017-Oct-28 14:30N 38°55' E 001°26'5 6.9
2017-Oct-28 13:44N 38°57' E 001°32'2 6.9
2017-Oct-28 13:30N 38°59' E 001°32'4 7.2
2017-Oct-28 12:53N 38°55' E 001°29'3 1.8
2017-Oct-28 11:27N 38°55' E 001°26'4 8.8
2017-Oct-28 10:59N 38°56' E 001°31'3 6.0
2017-Oct-28 10:30N 38°59' E 001°32'4 7.1
2017-Oct-28 09:54N 38°55' E 001°30'3 6.6
2017-Oct-28 09:29N 38°55' E 001°26'5 8.4
2017-Oct-28 08:53N 38°57' E 001°32'2 5.4
2017-Oct-28 08:30N 38°59' E 001°32'2 3.0
2017-Oct-28 07:51N 38°59' E 001°35'2 0.1
2017-Oct-27 17:06N 38°59' E 001°32'0 3.2
2017-Oct-27 17:00N 38°59' E 001°32'0 0.3
2017-Oct-27 16:29N 38°59' E 001°32'2 2.5
2017-Oct-27 15:47N 38°57' E 001°32'2 6.1
2017-Oct-27 15:29N 38°59' E 001°32'2 2.5
2017-Oct-27 14:50N 38°59' E 001°34'2 4.9
2017-Oct-27 14:29N 38°59' E 001°32'5 6.9
2017-Oct-27 13:49N 38°55' E 001°29'2 2.0
2017-Oct-27 12:35N 38°55' E 001°26'0 3.0
2017-Oct-27 12:30N 38°55' E 001°26'4 7.6
2017-Oct-27 11:59N 38°56' E 001°31'3 5.8
2017-Oct-27 11:29N 38°59' E 001°32'1 1.9
2017-Oct-27 10:44N 38°59' E 001°34'1 5.7
2017-Oct-27 10:29N 38°59' E 001°32'4 7.3
2017-Oct-27 09:54N 38°55' E 001°30'3 6.8
2017-Oct-27 09:30N 38°55' E 001°26'5 6.6
2017-Oct-27 08:42N 38°57' E 001°32'2 7.3
2017-Oct-27 08:28N 38°59' E 001°32'0 0.0
2017-Oct-26 17:03N 38°59' E 001°32'0 1.4
2017-Oct-26 17:00N 38°59' E 001°32'0 0.3
2017-Oct-26 16:30N 38°59' E 001°32'4 6.5
2017-Oct-26 15:55N 38°56' E 001°30'3 7.5
2017-Oct-26 15:29N 38°55' E 001°26'4 7.4
2017-Oct-26 14:57N 38°56' E 001°31'3 6.6
2017-Oct-26 14:29N 38°59' E 001°32'2 2.5
2017-Oct-26 13:47N 38°59' E 001°34'2 6.0
2017-Oct-26 13:30N 38°59' E 001°32'4 6.4
2017-Oct-26 12:55N 38°56' E 001°30'3 2.2
2017-Oct-26 11:25N 38°55' E 001°26'5 7.3
2017-Oct-26 10:42N 38°57' E 001°32'2 7.8
2017-Oct-26 10:29N 38°59' E 001°32'4 7.1
2017-Oct-26 09:55N 38°55' E 001°30'3 6.8
2017-Oct-26 09:28N 38°55' E 001°26'4 8.7
2017-Oct-26 09:00N 38°56' E 001°31'3 5.8
2017-Oct-26 08:30N 38°59' E 001°32'1 2.6
2017-Oct-26 08:00N 38°60' E 001°34'1 2.2
2017-Oct-26 07:30N 38°59' E 001°32'0 0.0
2017-Oct-26 07:00N 38°59' E 001°32'0 0.0
2017-Oct-26 06:30N 38°59' E 001°32'0 0.0
2017-Oct-25 17:10N 38°59' E 001°32'1 4.9
2017-Oct-25 17:00N 38°58' E 001°32'611.7
2017-Oct-25 16:30N 38°54' E 001°27'5 6.7
2017-Oct-25 15:50N 38°57' E 001°32'2 6.5
2017-Oct-25 15:30N 38°59' E 001°32'1 2.1
2017-Oct-25 14:49N 38°59' E 001°34'1 4.5
2017-Oct-25 14:30N 38°59' E 001°32'4 6.9
2017-Oct-25 13:53N 38°55' E 001°30'3 2.1
2017-Oct-25 12:35N 38°55' E 001°26'0 4.2
2017-Oct-25 12:29N 38°55' E 001°27'5 8.6
2017-Oct-25 11:57N 38°57' E 001°32'2 4.4
2017-Oct-25 11:30N 38°59' E 001°32'2 2.6
2017-Oct-25 10:50N 38°59' E 001°34'2 5.0
2017-Oct-25 10:30N 38°59' E 001°32'4 7.8
2017-Oct-25 09:58N 38°55' E 001°29'3 5.5
2017-Oct-25 09:30N 38°55' E 001°26'5 8.3
2017-Oct-25 08:55N 38°57' E 001°32'2 5.7
2017-Oct-25 08:30N 38°59' E 001°32'1 2.4
2017-Oct-25 07:58N 38°60' E 001°34'1 2.2
2017-Oct-25 07:29N 38°59' E 001°32'0 0.0
2017-Oct-24 17:12N 38°59' E 001°32'1 7.3
2017-Oct-24 17:01N 38°58' E 001°32'1 2.3
2017-Oct-24 16:27N 38°59' E 001°32'2 3.2
2017-Oct-24 15:51N 38°59' E 001°35'2 5.3
2017-Oct-24 15:29N 38°59' E 001°32'2 2.8
2017-Oct-24 14:53N 38°59' E 001°34'2 4.5
2017-Oct-24 14:30N 38°59' E 001°32'4 6.5
2017-Oct-24 13:56N 38°56' E 001°30'3 2.5
2017-Oct-24 12:34N 38°55' E 001°26'0 2.2
2017-Oct-24 12:31N 38°55' E 001°26'4 7.4
2017-Oct-24 12:00N 38°56' E 001°31'3 6.0
2017-Oct-24 11:29N 38°59' E 001°32'2 2.4
2017-Oct-24 10:48N 38°59' E 001°34'2 5.6
2017-Oct-24 10:30N 38°59' E 001°32'4 7.4
2017-Oct-24 09:56N 38°55' E 001°29'3 6.1
2017-Oct-24 09:29N 38°55' E 001°26'4 7.8
2017-Oct-24 08:56N 38°56' E 001°31'3 6.2
2017-Oct-24 08:29N 38°59' E 001°32'1 2.7
2017-Oct-24 08:00N 38°60' E 001°34'1 2.2
2017-Oct-24 07:30N 38°59' E 001°32'0 0.0
2017-Oct-24 07:00N 38°59' E 001°32'0 0.0
2017-Oct-23 15:37N 38°59' E 001°32'0 1.4
2017-Oct-23 15:28N 38°59' E 001°32'1 2.0
2017-Oct-23 14:48N 38°59' E 001°34'1 4.7
2017-Oct-23 14:30N 38°59' E 001°32'5 7.1
2017-Oct-23 13:50N 38°55' E 001°29'2 1.7
2017-Oct-23 12:33N 38°55' E 001°26'0 3.7
2017-Oct-23 12:29N 38°55' E 001°26'4 7.2
2017-Oct-23 11:57N 38°56' E 001°31'3 6.4
2017-Oct-23 11:29N 38°59' E 001°32'  
Track history (hours):
 
Tides and Currents Weather Stations Pressure Air Temp Water Temp Dewpoint Dewpoint Depression Visibility Wind Speed Wind Dir Waves Ship Positions

Santa Eulalia

Last reported at 2017-Nov-02 11:12 UTC. Time now 2017-Dec-13 19:04 UTC.
Position N 38°59' E 001°32'.
Warning: this ship's position is 41 days out of date.

Length 18 m.

Type: Passenger vessel. MMSI: 224005530.

Date/timePositionNaut miles runAvg speedWind from/ knotsBaromVisibWave heightAir tempDewpointWater temp
2017-Nov-02 11:12N 38°59' E 001°32'0 1.0
2017-Nov-02 11:00N 38°59' E 001°32'5 9.2
2017-Nov-02 10:30N 38°55' E 001°29'2 4.6
2017-Nov-02 10:00N 38°55' E 001°26'0 0.0
2017-Nov-02 09:28N 38°55' E 001°26'0 0.0
2017-Nov-02 08:58N 38°55' E 001°26'0 0.0
2017-Nov-02 08:28N 38°55' E 001°26'1 3.2
2017-Nov-02 08:00N 38°54' E 001°28'510.2
2017-Nov-02 07:29N 38°59' E 001°32'  
2017-Oct-30 09:22N 38°59' E 001°32'2 5.1
2017-Oct-30 09:00N 38°58' E 001°34'2 0.0
2017-Oct-28 16:37N 38°59' E 001°32'0 2.4
2017-Oct-28 16:30N 38°59' E 001°32'2 2.4
2017-Oct-28 15:48N 38°59' E 001°34'2 5.3
2017-Oct-28 15:29N 38°59' E 001°32'4 7.0
2017-Oct-28 14:58N 38°56' E 001°30'3 7.0
2017-Oct-28 14:30N 38°55' E 001°26'5 6.9
2017-Oct-28 13:44N 38°57' E 001°32'2 6.9
2017-Oct-28 13:30N 38°59' E 001°32'4 7.2
2017-Oct-28 12:53N 38°55' E 001°29'3 1.8
2017-Oct-28 11:27N 38°55' E 001°26'4 8.8
2017-Oct-28 10:59N 38°56' E 001°31'3 6.0
2017-Oct-28 10:30N 38°59' E 001°32'4 7.1
2017-Oct-28 09:54N 38°55' E 001°30'3 6.6
2017-Oct-28 09:29N 38°55' E 001°26'5 8.4
2017-Oct-28 08:53N 38°57' E 001°32'2 5.4
2017-Oct-28 08:30N 38°59' E 001°32'2 3.0
2017-Oct-28 07:51N 38°59' E 001°35'2 0.1
2017-Oct-27 17:06N 38°59' E 001°32'0 3.2
2017-Oct-27 17:00N 38°59' E 001°32'0 0.3
2017-Oct-27 16:29N 38°59' E 001°32'2 2.5
2017-Oct-27 15:47N 38°57' E 001°32'2 6.1
2017-Oct-27 15:29N 38°59' E 001°32'2 2.5
2017-Oct-27 14:50N 38°59' E 001°34'2 4.9
2017-Oct-27 14:29N 38°59' E 001°32'5 6.9
2017-Oct-27 13:49N 38°55' E 001°29'2 2.0
2017-Oct-27 12:35N 38°55' E 001°26'0 3.0
2017-Oct-27 12:30N 38°55' E 001°26'4 7.6
2017-Oct-27 11:59N 38°56' E 001°31'3 5.8
2017-Oct-27 11:29N 38°59' E 001°32'1 1.9
2017-Oct-27 10:44N 38°59' E 001°34'1 5.7
2017-Oct-27 10:29N 38°59' E 001°32'4 7.3
2017-Oct-27 09:54N 38°55' E 001°30'3 6.8
2017-Oct-27 09:30N 38°55' E 001°26'5 6.6
2017-Oct-27 08:42N 38°57' E 001°32'2 7.3
2017-Oct-27 08:28N 38°59' E 001°32'0 0.0
2017-Oct-26 17:03N 38°59' E 001°32'0 1.4
2017-Oct-26 17:00N 38°59' E 001°32'0 0.3
2017-Oct-26 16:30N 38°59' E 001°32'4 6.5
2017-Oct-26 15:55N 38°56' E 001°30'3 7.5
2017-Oct-26 15:29N 38°55' E 001°26'4 7.4
2017-Oct-26 14:57N 38°56' E 001°31'3 6.6
2017-Oct-26 14:29N 38°59' E 001°32'2 2.5
2017-Oct-26 13:47N 38°59' E 001°34'2 6.0
2017-Oct-26 13:30N 38°59' E 001°32'4 6.4
2017-Oct-26 12:55N 38°56' E 001°30'3 2.2
2017-Oct-26 11:25N 38°55' E 001°26'5 7.3
2017-Oct-26 10:42N 38°57' E 001°32'2 7.8
2017-Oct-26 10:29N 38°59' E 001°32'4 7.1
2017-Oct-26 09:55N 38°55' E 001°30'3 6.8
2017-Oct-26 09:28N 38°55' E 001°26'4 8.7
2017-Oct-26 09:00N 38°56' E 001°31'3 5.8
2017-Oct-26 08:30N 38°59' E 001°32'1 2.6
2017-Oct-26 08:00N 38°60' E 001°34'1 2.2
2017-Oct-26 07:30N 38°59' E 001°32'0 0.0
2017-Oct-26 07:00N 38°59' E 001°32'0 0.0
2017-Oct-26 06:30N 38°59' E 001°32'0 0.0
2017-Oct-25 17:10N 38°59' E 001°32'1 4.9
2017-Oct-25 17:00N 38°58' E 001°32'611.7
2017-Oct-25 16:30N 38°54' E 001°27'5 6.7
2017-Oct-25 15:50N 38°57' E 001°32'2 6.5
2017-Oct-25 15:30N 38°59' E 001°32'1 2.1
2017-Oct-25 14:49N 38°59' E 001°34'1 4.5
2017-Oct-25 14:30N 38°59' E 001°32'4 6.9
2017-Oct-25 13:53N 38°55' E 001°30'3 2.1
2017-Oct-25 12:35N 38°55' E 001°26'0 4.2
2017-Oct-25 12:29N 38°55' E 001°27'5 8.6
2017-Oct-25 11:57N 38°57' E 001°32'2 4.4
2017-Oct-25 11:30N 38°59' E 001°32'2 2.6
2017-Oct-25 10:50N 38°59' E 001°34'2 5.0
2017-Oct-25 10:30N 38°59' E 001°32'4 7.8
2017-Oct-25 09:58N 38°55' E 001°29'3 5.5
2017-Oct-25 09:30N 38°55' E 001°26'5 8.3
2017-Oct-25 08:55N 38°57' E 001°32'2 5.7
2017-Oct-25 08:30N 38°59' E 001°32'1 2.4
2017-Oct-25 07:58N 38°60' E 001°34'1 2.2
2017-Oct-25 07:29N 38°59' E 001°32'0 0.0
2017-Oct-24 17:12N 38°59' E 001°32'1 7.3
2017-Oct-24 17:01N 38°58' E 001°32'1 2.3
2017-Oct-24 16:27N 38°59' E 001°32'2 3.2
2017-Oct-24 15:51N 38°59' E 001°35'2 5.3
2017-Oct-24 15:29N 38°59' E 001°32'2 2.8
2017-Oct-24 14:53N 38°59' E 001°34'2 4.5
2017-Oct-24 14:30N 38°59' E 001°32'4 6.5
2017-Oct-24 13:56N 38°56' E 001°30'3 2.5
2017-Oct-24 12:34N 38°55' E 001°26'0 2.2
2017-Oct-24 12:31N 38°55' E 001°26'4 7.4
2017-Oct-24 12:00N 38°56' E 001°31'3 6.0
2017-Oct-24 11:29N 38°59' E 001°32'2 2.4
2017-Oct-24 10:48N 38°59' E 001°34'2 5.6
2017-Oct-24 10:30N 38°59' E 001°32'4 7.4
2017-Oct-24 09:56N 38°55' E 001°29'3 6.1
2017-Oct-24 09:29N 38°55' E 001°26'4 7.8
2017-Oct-24 08:56N 38°56' E 001°31'3 6.2
2017-Oct-24 08:29N 38°59' E 001°32'1 2.7
2017-Oct-24 08:00N 38°60' E 001°34'1 2.2
2017-Oct-24 07:30N 38°59' E 001°32'0 0.0
2017-Oct-24 07:00N 38°59' E 001°32'0 0.0
2017-Oct-23 15:37N 38°59' E 001°32'0 1.4
2017-Oct-23 15:28N 38°59' E 001°32'1 2.0
2017-Oct-23 14:48N 38°59' E 001°34'1 4.7
2017-Oct-23 14:30N 38°59' E 001°32'5 7.1
2017-Oct-23 13:50N 38°55' E 001°29'2 1.7
2017-Oct-23 12:33N 38°55' E 001°26'0 3.7
2017-Oct-23 12:29N 38°55' E 001°26'4 7.2
2017-Oct-23 11:57N 38°56' E 001°31'3 6.4
2017-Oct-23 11:29N 38°59' E 001°32'  

Dump ship's entire track history